createdAt,value
2019-04-05T00:07:18.943Z,100061.42
2019-04-05T00:09:49.334Z,100059.41
2019-04-05T00:12:19.561Z,100056.44
2019-04-05T00:14:50.267Z,100060.70
2019-04-05T00:17:22.508Z,100060.67
2019-04-05T00:19:53.145Z,100061.08
2019-04-05T00:22:23.456Z,100064.16
2019-04-05T00:24:54.013Z,100062.92
2019-04-05T00:27:24.783Z,100062.06
2019-04-05T00:29:54.849Z,100061.63
2019-04-05T00:32:25.231Z,100062.60
2019-04-05T00:34:55.711Z,100063.09
2019-04-05T00:37:26.038Z,100066.55
2019-04-05T00:39:56.557Z,100059.60
2019-04-05T00:42:26.824Z,100058.33
2019-04-05T00:44:56.908Z,100053.17
2019-04-05T00:47:27.315Z,100056.26
2019-04-05T00:49:57.587Z,100055.84
2019-04-05T00:52:27.913Z,100050.28
2019-04-05T00:54:58.447Z,100050.37
2019-04-05T00:57:28.766Z,100047.83
2019-04-05T00:59:58.895Z,100049.58
2019-04-05T01:02:29.282Z,100049.55
2019-04-05T01:04:59.640Z,100040.50
2019-04-05T01:07:30.477Z,100048.28
2019-04-05T01:10:02.151Z,100045.86
2019-04-05T01:12:33.044Z,100047.70
2019-04-05T01:15:03.279Z,100044.72
2019-04-05T01:17:34.797Z,100040.45
2019-04-05T01:20:05.460Z,100045.20
2019-04-05T01:22:37.752Z,100046.09
2019-04-05T01:25:08.391Z,100038.42
2019-04-05T01:27:40.023Z,100044.12
2019-04-05T01:30:12.377Z,100044.96
2019-04-05T01:32:44.071Z,100044.47
2019-04-05T01:35:14.115Z,100037.23
2019-04-05T01:37:44.575Z,100042.44
2019-04-05T01:40:15.544Z,100039.84
2019-04-05T01:42:46.796Z,100042.39
2019-04-05T01:45:17.288Z,100045.01
2019-04-05T01:47:47.567Z,100048.14
2019-04-05T01:50:18.485Z,100041.81
2019-04-05T01:52:48.980Z,100042.70
2019-04-05T01:55:19.250Z,100040.56
2019-04-05T01:57:49.537Z,100043.97
2019-04-05T02:00:19.771Z,100043.53
2019-04-05T02:02:50.360Z,100038.38
2019-04-05T02:05:21.010Z,100043.53
2019-04-05T02:07:51.491Z,100045.70
2019-04-05T02:10:22.507Z,100047.86
2019-04-05T02:12:53.090Z,100049.64
2019-04-05T02:15:25.439Z,100050.95
2019-04-05T02:17:56.455Z,100048.81
2019-04-05T02:20:26.974Z,100051.88
2019-04-05T02:22:57.238Z,100047.09
2019-04-05T02:25:28.684Z,100045.82
2019-04-05T02:27:59.238Z,100047.12
2019-04-05T02:30:29.571Z,100049.30
2019-04-05T02:33:00.717Z,100049.40
2019-04-05T02:35:30.841Z,100040.81
2019-04-05T02:38:01.230Z,100052.09
2019-04-05T02:40:32.380Z,100059.89
2019-04-05T02:43:03.940Z,100053.45
2019-04-05T02:45:36.367Z,100053.92
2019-04-05T02:48:08.002Z,100050.89
2019-04-05T02:50:41.987Z,100053.94
2019-04-05T02:53:13.420Z,100048.78
2019-04-05T02:55:44.104Z,100048.80
2019-04-05T02:58:14.830Z,100050.13
2019-04-05T03:00:45.572Z,100051.02
2019-04-05T03:03:16.436Z,100053.22
2019-04-05T03:05:46.914Z,100048.95
2019-04-05T03:08:18.245Z,100049.31
2019-04-05T03:11:18.642Z,100046.73
2019-04-05T03:13:54.140Z,100054.94
2019-04-05T03:16:40.265Z,100056.64
2019-04-05T03:19:25.192Z,100054.47
2019-04-05T03:22:01.422Z,100059.19
2019-04-05T03:24:33.956Z,100055.77
2019-04-05T03:27:13.076Z,100059.59
2019-04-05T03:29:43.763Z,100054.90
2019-04-05T03:32:15.618Z,100059.59
2019-04-05T03:34:45.935Z,100059.12
2019-04-05T03:37:16.715Z,100059.94
2019-04-05T03:39:47.565Z,100051.70
2019-04-05T03:42:18.347Z,100055.94
2019-04-05T03:44:48.844Z,100058.81
2019-04-05T03:47:19.266Z,100064.66
2019-04-05T03:49:49.933Z,100063.65
2019-04-05T03:52:20.440Z,100062.50
2019-04-05T03:54:51.137Z,100061.34
2019-04-05T03:57:22.751Z,100052.82
2019-04-05T03:59:53.039Z,100057.30
2019-04-05T04:02:23.991Z,100059.67
2019-04-05T04:04:54.754Z,100055.07
2019-04-05T04:07:24.979Z,100051.40
2019-04-05T04:09:55.553Z,100058.55
2019-04-05T04:12:26.039Z,100059.59
2019-04-05T04:15:14.241Z,100056.84
2019-04-05T04:17:44.358Z,100063.64
2019-04-05T04:20:42.187Z,100059.61
2019-04-05T04:23:12.565Z,100057.81
2019-04-05T04:25:43.297Z,100059.85
2019-04-05T04:28:14.469Z,100063.19
2019-04-05T04:30:45.284Z,100064.36
2019-04-05T04:33:15.936Z,100068.48
2019-04-05T04:35:46.403Z,100067.13
2019-04-05T04:38:17.305Z,100068.78
2019-04-05T04:40:47.686Z,100067.39
2019-04-05T04:43:18.516Z,100066.34
2019-04-05T04:45:49.278Z,100070.05
2019-04-05T04:48:19.960Z,100078.10
2019-04-05T04:50:50.911Z,100076.66
2019-04-05T04:53:21.311Z,100078.36
2019-04-05T04:55:52.059Z,100079.20
2019-04-05T04:58:22.765Z,100075.63
2019-04-05T05:00:53.297Z,100069.98
2019-04-05T05:03:23.765Z,100074.64
2019-04-05T05:05:54.650Z,100071.11
2019-04-05T05:08:24.887Z,100073.16
2019-04-05T05:10:55.371Z,100074.76
2019-04-05T05:13:26.130Z,100074.61
2019-04-05T05:15:56.794Z,100074.42
2019-04-05T05:18:28.208Z,100069.00
2019-04-05T05:20:58.945Z,100070.47
2019-04-05T05:23:29.500Z,100069.72
2019-04-05T05:26:12.766Z,100077.19
2019-04-05T05:28:43.244Z,100073.23
2019-04-05T05:31:13.972Z,100078.27
2019-04-05T05:33:44.739Z,100074.84
2019-04-05T05:36:15.333Z,100079.86
2019-04-05T05:38:45.938Z,100074.34
2019-04-05T05:41:16.571Z,100080.13
2019-04-05T05:43:47.122Z,100080.83
2019-04-05T05:46:20.990Z,100082.78
2019-04-05T05:48:51.420Z,100076.22
2019-04-05T05:51:22.050Z,100083.13
2019-04-05T05:53:53.656Z,100082.21
2019-04-05T05:56:24.228Z,100082.48
2019-04-05T05:58:58.898Z,100073.77
2019-04-05T06:01:27.558Z,100072.81
2019-04-05T06:03:58.016Z,100077.52
2019-04-05T06:06:28.434Z,100083.55
2019-04-05T06:08:59.850Z,100074.56
2019-04-05T06:11:31.211Z,100084.30
2019-04-05T06:14:01.599Z,100084.05
2019-04-05T06:16:45.852Z,100087.00
2019-04-05T06:19:10.677Z,100082.47
2019-04-05T06:21:41.253Z,100086.78
2019-04-05T06:24:11.702Z,100086.70
2019-04-05T06:26:42.240Z,100093.61
2019-04-05T06:29:13.156Z,100096.64
2019-04-05T06:31:43.776Z,100093.95
2019-04-05T06:34:14.342Z,100097.30
2019-04-05T06:36:44.538Z,100094.83
2019-04-05T06:39:14.986Z,100101.34
2019-04-05T06:41:45.434Z,100098.10
2019-04-05T06:44:15.873Z,100091.23
2019-04-05T06:46:46.325Z,100091.98
2019-04-05T06:49:16.903Z,100098.41
2019-04-05T06:51:49.671Z,100094.06
2019-04-05T06:54:20.574Z,100102.95
2019-04-05T06:56:51.384Z,100091.88
2019-04-05T06:59:22.193Z,100100.03
2019-04-05T07:01:53.486Z,100102.81
2019-04-05T07:04:24.682Z,100102.00
2019-04-05T07:06:55.714Z,100108.69
2019-04-05T07:09:26.241Z,100111.80
2019-04-05T07:11:58.946Z,100106.78
2019-04-05T07:14:29.232Z,100112.91
2019-04-05T07:16:59.631Z,100114.44
2019-04-05T07:19:30.225Z,100113.23
2019-04-05T07:22:00.797Z,100112.41
2019-04-05T07:24:31.324Z,100114.06
2019-04-05T07:27:03.118Z,100113.88
2019-04-05T07:29:33.865Z,100109.33
2019-04-05T07:32:05.469Z,100110.31
2019-04-05T07:34:35.863Z,100113.11
2019-04-05T07:37:06.487Z,100109.05
2019-04-05T07:39:37.484Z,100111.13
2019-04-05T07:42:08.372Z,100109.69
2019-04-05T07:44:38.833Z,100114.17
2019-04-05T07:47:10.005Z,100109.67
2019-04-05T07:49:40.596Z,100106.45
2019-04-05T07:52:13.049Z,100109.77
2019-04-05T07:54:44.445Z,100112.40
2019-04-05T07:57:17.303Z,100112.05
2019-04-05T07:59:48.372Z,100110.64
2019-04-05T08:02:18.949Z,100110.40
2019-04-05T08:04:49.316Z,100114.52
2019-04-05T08:07:19.948Z,100112.36
2019-04-05T08:09:53.216Z,100115.25
2019-04-05T08:12:24.660Z,100123.73
2019-04-05T08:14:55.722Z,100124.00
2019-04-05T08:17:26.102Z,100121.06
2019-04-05T08:19:56.481Z,100114.16
2019-04-05T08:22:28.373Z,100120.59
2019-04-05T08:24:59.533Z,100116.61
2019-04-05T08:27:31.577Z,100112.36
2019-04-05T08:30:04.146Z,100110.56
2019-04-05T08:32:35.238Z,100112.50
2019-04-05T08:35:06.679Z,100108.42
2019-04-05T08:37:36.915Z,100106.32
2019-04-05T08:40:07.663Z,100106.94
2019-04-05T08:42:38.758Z,100105.94
2019-04-05T08:45:09.124Z,100107.63
2019-04-05T08:47:44.093Z,100111.88
2019-04-05T08:50:12.433Z,100108.33
2019-04-05T08:52:46.617Z,100105.70
2019-04-05T08:55:21.684Z,100106.28
2019-04-05T08:57:55.706Z,100109.47
2019-04-05T09:00:30.328Z,100108.15
2019-04-05T09:03:02.015Z,100110.61
2019-04-05T09:05:34.277Z,100105.59
2019-04-05T09:08:05.351Z,100111.78
2019-04-05T09:10:36.755Z,100105.91
2019-04-05T09:13:10.983Z,100107.39
2019-04-05T09:15:42.859Z,100106.01
2019-04-05T09:18:13.571Z,100106.77
2019-04-05T09:20:44.537Z,100108.47
2019-04-05T09:23:16.261Z,100114.65
2019-04-05T09:25:47.732Z,100108.25
2019-04-05T09:28:18.840Z,100102.07
2019-04-05T09:30:51.955Z,100088.73
2019-04-05T09:33:24.107Z,100095.59
2019-04-05T09:35:55.321Z,100095.59
2019-04-05T09:38:26.741Z,100089.06
2019-04-05T09:40:59.253Z,100093.01
2019-04-05T09:43:30.866Z,100094.16
2019-04-05T09:46:02.828Z,100095.23
2019-04-05T09:48:33.371Z,100095.44
2019-04-05T09:51:03.923Z,100083.88
2019-04-05T09:53:37.915Z,100084.41
2019-04-05T09:56:11.536Z,100091.13
2019-04-05T09:58:50.124Z,100084.20
2019-04-05T10:01:23.460Z,100077.22
2019-04-05T10:03:54.379Z,100081.84
2019-04-05T10:06:25.123Z,100085.42
2019-04-05T10:08:56.082Z,100089.86
2019-04-05T10:11:28.230Z,100084.93
2019-04-05T10:13:58.606Z,100095.98
2019-04-05T10:16:30.813Z,100090.61
2019-04-05T10:19:01.844Z,100094.20
2019-04-05T10:21:32.431Z,100096.02
2019-04-05T10:24:05.507Z,100089.97
2019-04-05T10:26:38.169Z,100093.45
2019-04-05T10:29:08.688Z,100088.47
2019-04-05T10:31:39.860Z,100091.16
2019-04-05T10:34:13.516Z,100091.16
2019-04-05T10:36:46.766Z,100088.62
2019-04-05T10:39:18.449Z,100097.31
2019-04-05T10:42:02.302Z,100096.38
2019-04-05T10:44:21.791Z,100093.27
2019-04-05T10:46:53.012Z,100097.14
2019-04-05T10:49:23.956Z,100096.29
2019-04-05T10:51:54.566Z,100095.80
2019-04-05T10:54:25.607Z,100098.33
2019-04-05T10:56:56.566Z,100096.95
2019-04-05T10:59:27.410Z,100100.77
2019-04-05T11:01:58.104Z,100088.89
2019-04-05T11:04:28.921Z,100086.48
2019-04-05T11:07:00.101Z,100095.48
2019-04-05T11:09:31.034Z,100098.13
2019-04-05T11:12:04.592Z,100093.03
2019-04-05T11:14:35.285Z,100091.17
2019-04-05T11:17:05.638Z,100097.42
2019-04-05T11:19:36.478Z,100089.48
2019-04-05T11:22:07.081Z,100096.14
2019-04-05T11:24:37.523Z,100097.95
2019-04-05T11:27:10.404Z,100096.58
2019-04-05T11:29:41.280Z,100100.55
2019-04-05T11:32:15.071Z,100097.34
2019-04-05T11:34:45.548Z,100103.88
2019-04-05T11:37:16.887Z,100099.70
2019-04-05T11:39:49.943Z,100108.97
2019-04-05T11:42:23.176Z,100104.41
2019-04-05T11:44:55.493Z,100100.41
2019-04-05T11:47:32.639Z,100101.37
2019-04-05T11:50:05.844Z,100100.22
2019-04-05T11:52:36.801Z,100103.31
2019-04-05T11:55:08.006Z,100096.09
2019-04-05T11:57:41.920Z,100092.94
2019-04-05T12:00:19.041Z,100099.05
2019-04-05T12:03:00.021Z,100100.97
2019-04-05T12:05:31.138Z,100104.67
2019-04-05T12:08:02.106Z,100109.27
2019-04-05T12:10:34.187Z,100109.49
2019-04-05T12:13:10.469Z,100110.67
2019-04-05T12:15:42.014Z,100115.30
2019-04-05T12:18:12.497Z,100109.23
2019-04-05T12:20:50.903Z,100122.11
2019-04-05T12:23:15.878Z,100124.67
2019-04-05T12:25:46.387Z,100127.88
2019-04-05T12:28:17.059Z,100136.92
2019-04-05T12:30:48.571Z,100135.23
2019-04-05T12:33:19.709Z,100130.61
2019-04-05T12:35:52.533Z,100129.47
2019-04-05T12:38:34.222Z,100130.30
2019-04-05T12:41:05.793Z,100129.34
2019-04-05T12:43:43.809Z,100117.94
2019-04-05T12:46:15.890Z,100126.56
2019-04-05T12:48:46.282Z,100131.78
2019-04-05T12:51:18.448Z,100135.98
2019-04-05T12:53:49.210Z,100145.49
2019-04-05T12:56:20.540Z,100136.34
2019-04-05T12:58:50.915Z,100155.19
2019-04-05T13:01:22.067Z,100154.31
2019-04-05T13:03:52.975Z,100148.66
2019-04-05T13:06:23.408Z,100156.13
2019-04-05T13:08:54.502Z,100163.42
2019-04-05T13:11:27.369Z,100166.53
2019-04-05T13:13:58.186Z,100172.69
2019-04-05T13:16:28.644Z,100178.42
2019-04-05T13:19:00.838Z,100183.84
2019-04-05T13:21:33.141Z,100190.94
2019-04-05T13:24:09.349Z,100182.05
2019-04-05T13:26:41.687Z,100198.00
2019-04-05T13:29:10.933Z,100192.13
2019-04-05T13:31:41.219Z,100189.78
2019-04-05T13:34:11.690Z,100193.47
2019-04-05T13:36:43.357Z,100193.23
2019-04-05T13:39:13.779Z,100194.30
2019-04-05T13:41:45.053Z,100191.51
2019-04-05T13:44:21.940Z,100185.08
2019-04-05T13:46:52.115Z,100199.94
2019-04-05T13:49:22.661Z,100202.77
2019-04-05T13:51:52.871Z,100203.84
2019-04-05T13:54:23.186Z,100211.60
2019-04-05T13:56:53.641Z,100210.48
2019-04-05T13:59:23.933Z,100210.42
2019-04-05T14:02:05.518Z,100213.05
2019-04-05T14:04:26.649Z,100216.05
2019-04-05T14:06:59.143Z,100218.48
2019-04-05T14:09:31.663Z,100221.30
2019-04-05T14:12:02.312Z,100218.72
2019-04-05T14:14:32.972Z,100216.91
2019-04-05T14:17:03.562Z,100218.95
2019-04-05T14:19:34.070Z,100217.06
2019-04-05T14:22:08.672Z,100217.63
2019-04-05T14:24:37.190Z,100222.97
2019-04-05T14:27:09.024Z,100229.69
2019-04-05T14:29:40.430Z,100226.28
2019-04-05T14:32:20.482Z,100222.63
2019-04-05T14:34:43.709Z,100226.47
2019-04-05T14:37:14.945Z,100223.34
2019-04-05T14:39:46.805Z,100224.90
2019-04-05T14:42:18.904Z,100229.41
2019-04-05T14:44:49.997Z,100231.80
2019-04-05T14:47:20.441Z,100236.92
2019-04-05T14:49:51.443Z,100233.92
2019-04-05T14:52:25.488Z,100225.53
2019-04-05T14:54:55.601Z,100228.59
2019-04-05T14:57:26.120Z,100226.70
2019-04-05T14:59:56.508Z,100229.13
2019-04-05T15:02:26.777Z,100237.64
2019-04-05T15:04:57.539Z,100234.08
2019-04-05T15:07:28.045Z,100239.61
2019-04-05T15:09:58.723Z,100231.61
2019-04-05T15:12:29.594Z,100240.39
2019-04-05T15:15:00.420Z,100237.72
2019-04-05T15:17:32.169Z,100244.07
2019-04-05T15:20:04.815Z,100239.93
2019-04-05T15:22:35.192Z,100249.23
2019-04-05T15:25:06.257Z,100247.14
2019-04-05T15:27:40.243Z,100245.50
2019-04-05T15:30:11.779Z,100252.30
2019-04-05T15:32:43.611Z,100247.50
2019-04-05T15:35:14.463Z,100250.94
2019-04-05T15:37:44.877Z,100245.97
2019-04-05T15:40:17.959Z,100246.73
2019-04-05T15:42:48.391Z,100254.91
2019-04-05T15:45:19.206Z,100257.30
2019-04-05T15:47:54.087Z,100254.91
2019-04-05T15:50:24.632Z,100254.08
2019-04-05T15:52:55.139Z,100258.22
2019-04-05T15:55:26.829Z,100259.31
2019-04-05T15:57:57.121Z,100259.06
2019-04-05T16:00:41.459Z,100261.31
2019-04-05T16:03:13.019Z,100268.05
2019-04-05T16:05:48.841Z,100266.91
2019-04-05T16:08:21.208Z,100267.09
2019-04-05T16:10:52.163Z,100269.29
2019-04-05T16:13:25.237Z,100272.38
2019-04-05T16:15:55.362Z,100269.23
2019-04-05T16:18:27.939Z,100279.95
2019-04-05T16:20:58.552Z,100280.58
2019-04-05T16:23:32.166Z,100277.84
2019-04-05T16:26:02.724Z,100276.30
2019-04-05T16:28:32.955Z,100284.37
2019-04-05T16:31:03.290Z,100289.42
2019-04-05T16:33:33.935Z,100293.94
2019-04-05T16:36:07.813Z,100290.16
2019-04-05T16:38:38.685Z,100302.56
2019-04-05T16:41:09.150Z,100303.62
2019-04-05T16:43:39.963Z,100299.45
2019-04-05T16:46:10.758Z,100302.59
2019-04-05T16:48:44.302Z,100305.30
2019-04-05T16:51:15.330Z,100315.45
2019-04-05T16:54:02.170Z,100313.41
2019-04-05T16:56:35.801Z,100317.87
2019-04-05T16:59:09.023Z,100321.09
2019-04-05T17:01:44.622Z,100321.71
2019-04-05T17:04:15.482Z,100318.28
2019-04-05T17:06:45.939Z,100322.15
2019-04-05T17:09:17.711Z,100321.66
2019-04-05T17:11:50.598Z,100326.33
2019-04-05T17:14:23.675Z,100328.33
2019-04-05T17:16:54.050Z,100323.52
2019-04-05T17:19:25.582Z,100327.32
2019-04-05T17:21:58.476Z,100328.58
2019-04-05T17:24:28.897Z,100328.63
2019-04-05T17:27:00.679Z,100332.97
2019-04-05T17:29:31.133Z,100330.36
2019-04-05T17:32:05.121Z,100334.28
2019-04-05T17:41:33.003Z,100344.81
2019-04-05T17:44:03.404Z,100344.66
2019-04-05T17:46:34.947Z,100347.40
2019-04-05T17:49:05.383Z,100350.02
2019-04-05T17:51:36.219Z,100344.78
2019-04-05T17:54:06.944Z,100349.09
2019-04-05T17:56:37.488Z,100343.83
2019-04-05T17:59:08.873Z,100344.22
2019-04-05T18:01:39.765Z,100351.14
2019-04-05T18:04:10.947Z,100343.83
2019-04-05T18:06:41.669Z,100350.36
2019-04-05T18:09:12.152Z,100351.66
2019-04-05T18:11:42.969Z,100352.92
2019-04-05T18:14:13.427Z,100354.63
2019-04-05T18:16:43.704Z,100355.06
2019-04-05T18:19:14.123Z,100352.92
2019-04-05T18:21:44.348Z,100348.58
2019-04-05T18:24:15.043Z,100348.66
2019-04-05T18:26:45.452Z,100359.65
2019-04-05T18:29:15.894Z,100358.81
2019-04-05T18:31:46.556Z,100357.08
2019-04-05T18:34:17.054Z,100357.59
2019-04-05T18:36:48.089Z,100362.00
2019-04-05T18:39:18.391Z,100355.17
2019-04-05T18:41:49.177Z,100363.05
2019-04-05T18:44:20.659Z,100366.53
2019-04-05T18:46:51.572Z,100360.56
2019-04-05T18:49:22.203Z,100366.70
2019-04-05T18:51:53.749Z,100372.41
2019-04-05T18:54:26.799Z,100370.80
2019-04-05T18:56:57.773Z,100366.88
2019-04-05T18:59:28.633Z,100377.34
2019-04-05T19:01:58.931Z,100376.16
2019-04-05T19:04:29.061Z,100373.98
2019-04-05T19:06:59.626Z,100376.08
2019-04-05T19:09:30.141Z,100372.98
2019-04-05T19:12:00.486Z,100380.91
2019-04-05T19:14:30.802Z,100384.34
2019-04-05T19:17:01.022Z,100391.33
2019-04-05T19:19:31.448Z,100384.38
2019-04-05T19:22:01.629Z,100392.27
2019-04-05T19:24:32.228Z,100393.00
2019-04-05T19:27:02.899Z,100395.61
2019-04-05T19:29:33.894Z,100395.42
2019-04-05T19:49:53.409Z,100390.91
2019-04-05T19:52:23.349Z,100396.09
2019-04-05T19:54:54.001Z,100399.53
2019-04-05T19:57:25.124Z,100402.53
2019-04-05T19:59:55.642Z,100399.84
2019-04-05T20:02:26.003Z,100395.81
2019-04-05T20:04:56.488Z,100403.60
2019-04-05T20:07:26.654Z,100399.88
2019-04-05T20:09:58.100Z,100405.91
2019-04-05T20:12:28.393Z,100414.45
2019-04-05T20:14:59.385Z,100409.54
2019-04-05T20:17:30.080Z,100413.64
2019-04-05T20:20:00.273Z,100414.98
2019-04-05T20:22:31.282Z,100418.86
2019-04-05T20:25:01.657Z,100423.89
2019-04-05T20:27:32.750Z,100418.52
2019-04-05T20:30:04.388Z,100419.74
2019-04-05T20:32:35.017Z,100420.98
2019-04-05T20:35:06.135Z,100426.20
2019-04-05T20:37:37.310Z,100423.73
2019-04-05T20:40:08.292Z,100420.41
2019-04-05T20:42:40.616Z,100422.73
2019-04-05T20:45:13.589Z,100419.34
2019-04-05T20:47:45.881Z,100427.67
2019-04-05T20:50:16.824Z,100424.70
2019-04-05T20:52:47.277Z,100422.53
2019-04-05T20:55:17.706Z,100425.19
2019-04-05T20:57:48.872Z,100431.75
2019-04-05T21:00:19.755Z,100426.31
2019-04-05T21:02:50.909Z,100433.09
2019-04-05T21:05:25.486Z,100436.67
2019-04-05T21:07:53.871Z,100440.66
2019-04-05T21:10:24.220Z,100439.43
2019-04-05T21:12:55.442Z,100439.03
2019-04-05T21:15:25.798Z,100445.66
2019-04-05T21:17:56.182Z,100448.80
2019-04-05T21:20:27.227Z,100447.97
2019-04-05T21:22:57.723Z,100458.04
2019-04-05T21:25:27.932Z,100449.75
2019-04-05T21:27:58.155Z,100465.36
2019-04-05T21:30:28.679Z,100456.63
2019-04-05T21:32:59.385Z,100460.47
2019-04-05T21:35:29.796Z,100464.31
2019-04-05T21:38:00.683Z,100469.50
2019-04-05T21:40:31.424Z,100473.38
2019-04-05T21:43:05.012Z,100465.11
2019-04-05T21:45:35.525Z,100475.48
2019-04-05T21:48:05.816Z,100474.58
2019-04-05T21:50:36.390Z,100475.88
2019-04-05T21:53:06.840Z,100472.11
2019-04-05T21:55:37.478Z,100478.77
2019-04-05T21:58:07.916Z,100476.77
2019-04-05T22:00:43.755Z,100480.38
2019-04-05T22:03:15.928Z,100477.44
2019-04-05T22:05:47.637Z,100481.37
2019-04-05T22:08:18.328Z,100479.30
2019-04-05T22:10:48.712Z,100484.95
2019-04-05T22:13:19.447Z,100486.26
2019-04-05T22:16:08.123Z,100490.14
2019-04-05T22:18:39.593Z,100489.27
2019-04-05T22:21:09.827Z,100491.88
2019-04-05T22:23:40.231Z,100497.92
2019-04-05T22:26:10.386Z,100496.09
2019-04-05T22:28:41.192Z,100497.36
2019-04-05T22:31:11.355Z,100500.77
2019-04-05T22:33:42.384Z,100505.55
2019-04-05T22:36:12.545Z,100504.68
2019-04-05T22:38:43.695Z,100502.98
2019-04-05T22:41:14.246Z,100503.84
2019-04-05T22:43:45.126Z,100499.03
2019-04-05T22:46:15.413Z,100504.61
2019-04-05T22:48:46.055Z,100502.34
2019-04-05T22:51:16.529Z,100500.97
2019-04-05T22:53:46.765Z,100504.81
2019-04-05T22:56:17.237Z,100509.92
2019-04-05T22:58:47.660Z,100513.38
2019-04-05T23:01:18.144Z,100514.14
2019-04-05T23:03:48.674Z,100514.97
2019-04-05T23:06:18.954Z,100512.37
2019-04-05T23:08:49.060Z,100507.58
2019-04-05T23:11:19.493Z,100515.84
2019-04-05T23:13:49.898Z,100508.92
2019-04-05T23:16:20.247Z,100513.67
2019-04-05T23:18:50.528Z,100507.58
2019-04-05T23:21:21.043Z,100510.16
2019-04-05T23:23:51.362Z,100511.86
2019-04-05T23:26:21.837Z,100520.16
2019-04-05T23:28:53.109Z,100511.09
2019-04-05T23:31:23.310Z,100518.02
2019-04-05T23:33:53.466Z,100518.02
2019-04-05T23:36:24.088Z,100519.66
2019-04-05T23:38:54.416Z,100517.01
2019-04-05T23:41:24.747Z,100513.09
2019-04-05T23:43:55.080Z,100508.35
2019-04-05T23:46:25.212Z,100507.95
2019-04-05T23:48:56.471Z,100513.67
2019-04-05T23:51:26.718Z,100512.37
2019-04-05T23:53:58.133Z,100502.80
2019-04-05T23:56:29.497Z,100506.31
2019-04-05T23:58:59.702Z,100498.95
